sensor_id;sensor_type;location;lat;lon;timestamp;temperature;humidity
12688;DHT22;6408;59.388;17.798;2024-01-30T00:01:33;2.60;99.90
12688;DHT22;6408;59.388;17.798;2024-01-30T00:04:00;2.60;99.90
12688;DHT22;6408;59.388;17.798;2024-01-30T00:06:27;2.50;99.90
12688;DHT22;6408;59.388;17.798;2024-01-30T00:08:54;2.50;99.90
12688;DHT22;6408;59.388;17.798;2024-01-30T00:11:21;2.40;99.90
12688;DHT22;6408;59.388;17.798;2024-01-30T00:13:48;2.40;99.90
12688;DHT22;6408;59.388;17.798;2024-01-30T00:16:27;2.40;99.90
12688;DHT22;6408;59.388;17.798;2024-01-30T00:18:55;2.50;99.90
12688;DHT22;6408;59.388;17.798;2024-01-30T00:21:22;2.50;99.90
12688;DHT22;6408;59.388;17.798;2024-01-30T00:23:50;2.60;99.90
12688;DHT22;6408;59.388;17.798;2024-01-30T00:26:17;2.70;99.90
12688;DHT22;6408;59.388;17.798;2024-01-30T00:28:44;2.70;99.90
12688;DHT22;6408;59.388;17.798;2024-01-30T00:31:11;2.60;99.90
12688;DHT22;6408;59.388;17.798;2024-01-30T00:33:40;2.50;99.90
12688;DHT22;6408;59.388;17.798;2024-01-30T00:36:08;2.60;99.90
12688;DHT22;6408;59.388;17.798;2024-01-30T00:38:36;2.60;99.90
12688;DHT22;6408;59.388;17.798;2024-01-30T00:41:03;2.60;99.90
12688;DHT22;6408;59.388;17.798;2024-01-30T00:43:30;2.60;99.90
12688;DHT22;6408;59.388;17.798;2024-01-30T00:45:58;2.60;99.90
12688;DHT22;6408;59.388;17.798;2024-01-30T00:48:25;2.70;99.90
12688;DHT22;6408;59.388;17.798;2024-01-30T00:50:53;2.70;99.90
12688;DHT22;6408;59.388;17.798;2024-01-30T00:53:20;2.70;99.90
12688;DHT22;6408;59.388;17.798;2024-01-30T00:55:47;2.80;99.90
12688;DHT22;6408;59.388;17.798;2024-01-30T00:58:14;2.80;99.90
12688;DHT22;6408;59.388;17.798;2024-01-30T01:00:41;2.70;99.90
12688;DHT22;6408;59.388;17.798;2024-01-30T01:03:08;2.70;99.90
12688;DHT22;6408;59.388;17.798;2024-01-30T01:05:36;2.70;99.90
12688;DHT22;6408;59.388;17.798;2024-01-30T01:08:05;2.70;99.90
12688;DHT22;6408;59.388;17.798;2024-01-30T01:10:32;2.70;99.90
12688;DHT22;6408;59.388;17.798;2024-01-30T01:12:59;2.80;99.90
12688;DHT22;6408;59.388;17.798;2024-01-30T01:15:26;2.80;99.90
12688;DHT22;6408;59.388;17.798;2024-01-30T01:17:53;2.80;99.90
12688;DHT22;6408;59.388;17.798;2024-01-30T01:20:21;2.70;99.90
12688;DHT22;6408;59.388;17.798;2024-01-30T01:22:48;2.70;99.90
12688;DHT22;6408;59.388;17.798;2024-01-30T01:25:16;2.70;99.90
12688;DHT22;6408;59.388;17.798;2024-01-30T01:27:43;2.70;99.90
12688;DHT22;6408;59.388;17.798;2024-01-30T01:30:17;2.70;99.90
12688;DHT22;6408;59.388;17.798;2024-01-30T01:32:47;2.70;99.90
12688;DHT22;6408;59.388;17.798;2024-01-30T01:35:21;2.70;99.90
12688;DHT22;6408;59.388;17.798;2024-01-30T01:37:48;2.60;99.90
12688;DHT22;6408;59.388;17.798;2024-01-30T01:40:22;2.60;99.90
12688;DHT22;6408;59.388;17.798;2024-01-30T01:42:50;2.60;99.90
12688;DHT22;6408;59.388;17.798;2024-01-30T01:45:18;2.60;99.90
12688;DHT22;6408;59.388;17.798;2024-01-30T01:47:47;2.50;99.90
12688;DHT22;6408;59.388;17.798;2024-01-30T01:50:16;2.50;99.90
12688;DHT22;6408;59.388;17.798;2024-01-30T01:52:45;2.50;99.90
12688;DHT22;6408;59.388;17.798;2024-01-30T01:55:14;2.50;99.90
12688;DHT22;6408;59.388;17.798;2024-01-30T01:57:45;2.50;99.90
12688;DHT22;6408;59.388;17.798;2024-01-30T02:00:12;2.40;99.90
12688;DHT22;6408;59.388;17.798;2024-01-30T02:02:40;2.40;99.90
12688;DHT22;6408;59.388;17.798;2024-01-30T02:05:08;2.40;99.90
12688;DHT22;6408;59.388;17.798;2024-01-30T02:07:35;2.40;99.90
12688;DHT22;6408;59.388;17.798;2024-01-30T02:10:03;2.40;99.90
12688;DHT22;6408;59.388;17.798;2024-01-30T02:12:30;2.40;99.90
12688;DHT22;6408;59.388;17.798;2024-01-30T02:14:59;2.40;99.90
12688;DHT22;6408;59.388;17.798;2024-01-30T02:17:25;2.30;99.90
12688;DHT22;6408;59.388;17.798;2024-01-30T02:19:53;2.30;99.90
12688;DHT22;6408;59.388;17.798;2024-01-30T02:22:21;2.30;99.90
12688;DHT22;6408;59.388;17.798;2024-01-30T02:24:49;2.40;99.90
12688;DHT22;6408;59.388;17.798;2024-01-30T02:27:16;2.30;99.90
12688;DHT22;6408;59.388;17.798;2024-01-30T02:29:43;2.30;99.90
12688;DHT22;6408;59.388;17.798;2024-01-30T02:32:11;2.30;99.90
12688;DHT22;6408;59.388;17.798;2024-01-30T02:34:38;2.30;99.90
12688;DHT22;6408;59.388;17.798;2024-01-30T02:37:05;2.30;99.90
12688;DHT22;6408;59.388;17.798;2024-01-30T02:39:32;2.30;99.90
12688;DHT22;6408;59.388;17.798;2024-01-30T02:41:59;2.20;99.90
12688;DHT22;6408;59.388;17.798;2024-01-30T02:44:26;2.20;99.90
12688;DHT22;6408;59.388;17.798;2024-01-30T02:46:53;2.20;99.90
12688;DHT22;6408;59.388;17.798;2024-01-30T02:49:20;2.20;99.90
12688;DHT22;6408;59.388;17.798;2024-01-30T02:51:48;2.20;99.90
12688;DHT22;6408;59.388;17.798;2024-01-30T02:54:15;2.20;99.90
12688;DHT22;6408;59.388;17.798;2024-01-30T02:56:44;2.20;99.90
12688;DHT22;6408;59.388;17.798;2024-01-30T02:59:11;2.20;99.90
12688;DHT22;6408;59.388;17.798;2024-01-30T03:01:44;2.20;99.90
12688;DHT22;6408;59.388;17.798;2024-01-30T03:04:11;2.10;99.90
12688;DHT22;6408;59.388;17.798;2024-01-30T03:06:38;2.00;99.90
12688;DHT22;6408;59.388;17.798;2024-01-30T03:09:05;2.00;99.90
12688;DHT22;6408;59.388;17.798;2024-01-30T03:11:32;2.10;99.90
12688;DHT22;6408;59.388;17.798;2024-01-30T03:14:01;2.10;99.90
12688;DHT22;6408;59.388;17.798;2024-01-30T03:16:30;2.00;99.90
12688;DHT22;6408;59.388;17.798;2024-01-30T03:18:57;2.00;99.90
12688;DHT22;6408;59.388;17.798;2024-01-30T03:21:27;2.00;99.90
12688;DHT22;6408;59.388;17.798;2024-01-30T03:23:54;1.90;99.90
12688;DHT22;6408;59.388;17.798;2024-01-30T03:26:21;1.90;99.90
12688;DHT22;6408;59.388;17.798;2024-01-30T03:28:48;1.90;99.90
12688;DHT22;6408;59.388;17.798;2024-01-30T03:31:17;1.90;99.90
12688;DHT22;6408;59.388;17.798;2024-01-30T03:33:44;1.90;99.90
12688;DHT22;6408;59.388;17.798;2024-01-30T03:36:11;1.90;99.90
12688;DHT22;6408;59.388;17.798;2024-01-30T03:38:38;1.90;99.90
12688;DHT22;6408;59.388;17.798;2024-01-30T03:41:08;1.90;99.90
12688;DHT22;6408;59.388;17.798;2024-01-30T03:43:35;1.90;99.90
12688;DHT22;6408;59.388;17.798;2024-01-30T03:46:03;1.90;99.90
12688;DHT22;6408;59.388;17.798;2024-01-30T03:48:32;1.80;99.90
12688;DHT22;6408;59.388;17.798;2024-01-30T03:50:59;1.80;99.90
12688;DHT22;6408;59.388;17.798;2024-01-30T03:53:27;1.80;99.90
12688;DHT22;6408;59.388;17.798;2024-01-30T03:55:54;1.80;99.90
12688;DHT22;6408;59.388;17.798;2024-01-30T03:58:25;1.80;99.90
12688;DHT22;6408;59.388;17.798;2024-01-30T04:00:52;1.70;99.90
12688;DHT22;6408;59.388;17.798;2024-01-30T04:03:20;1.60;99.90
12688;DHT22;6408;59.388;17.798;2024-01-30T04:05:49;1.70;99.90
12688;DHT22;6408;59.388;17.798;2024-01-30T04:08:17;1.70;99.90
12688;DHT22;6408;59.388;17.798;2024-01-30T04:10:46;1.70;99.90
12688;DHT22;6408;59.388;17.798;2024-01-30T04:13:13;1.70;99.90
12688;DHT22;6408;59.388;17.798;2024-01-30T04:15:45;1.60;99.90
12688;DHT22;6408;59.388;17.798;2024-01-30T04:18:12;1.60;99.90
12688;DHT22;6408;59.388;17.798;2024-01-30T04:20:39;1.50;99.90
12688;DHT22;6408;59.388;17.798;2024-01-30T04:23:09;1.50;99.90
12688;DHT22;6408;59.388;17.798;2024-01-30T04:25:36;1.50;99.90
12688;DHT22;6408;59.388;17.798;2024-01-30T04:28:05;1.60;99.90
12688;DHT22;6408;59.388;17.798;2024-01-30T04:30:32;1.60;99.90
12688;DHT22;6408;59.388;17.798;2024-01-30T04:32:59;1.60;99.90
12688;DHT22;6408;59.388;17.798;2024-01-30T04:35:26;1.60;99.90
12688;DHT22;6408;59.388;17.798;2024-01-30T04:44:25;1.60;99.90
12688;DHT22;6408;59.388;17.798;2024-01-30T04:46:58;1.60;99.90
12688;DHT22;6408;59.388;17.798;2024-01-30T04:49:28;1.50;99.90
12688;DHT22;6408;59.388;17.798;2024-01-30T04:51:57;1.50;99.90
12688;DHT22;6408;59.388;17.798;2024-01-30T04:54:28;1.60;99.90
12688;DHT22;6408;59.388;17.798;2024-01-30T04:57:01;1.60;99.90
12688;DHT22;6408;59.388;17.798;2024-01-30T04:59:34;1.50;99.90
12688;DHT22;6408;59.388;17.798;2024-01-30T05:02:15;1.50;99.90
12688;DHT22;6408;59.388;17.798;2024-01-30T05:04:43;1.50;99.90
12688;DHT22;6408;59.388;17.798;2024-01-30T05:07:17;1.40;99.90
12688;DHT22;6408;59.388;17.798;2024-01-30T05:10:00;1.40;99.90
12688;DHT22;6408;59.388;17.798;2024-01-30T05:12:30;1.40;99.90
12688;DHT22;6408;59.388;17.798;2024-01-30T05:14:57;1.50;99.90
12688;DHT22;6408;59.388;17.798;2024-01-30T05:17:24;1.50;99.90
12688;DHT22;6408;59.388;17.798;2024-01-30T05:19:54;1.40;99.90
12688;DHT22;6408;59.388;17.798;2024-01-30T05:22:21;1.40;99.90
12688;DHT22;6408;59.388;17.798;2024-01-30T05:24:50;1.40;99.90
12688;DHT22;6408;59.388;17.798;2024-01-30T05:27:17;1.50;99.90
12688;DHT22;6408;59.388;17.798;2024-01-30T05:29:46;1.50;99.90
12688;DHT22;6408;59.388;17.798;2024-01-30T05:32:13;1.40;99.90
12688;DHT22;6408;59.388;17.798;2024-01-30T05:34:40;1.50;99.90
12688;DHT22;6408;59.388;17.798;2024-01-30T05:37:07;1.50;99.90
12688;DHT22;6408;59.388;17.798;2024-01-30T05:39:34;1.50;99.90
12688;DHT22;6408;59.388;17.798;2024-01-30T05:42:04;1.50;99.90
12688;DHT22;6408;59.388;17.798;2024-01-30T05:44:31;1.40;99.90
12688;DHT22;6408;59.388;17.798;2024-01-30T05:47:08;1.40;99.90
12688;DHT22;6408;59.388;17.798;2024-01-30T05:49:41;1.40;99.90
12688;DHT22;6408;59.388;17.798;2024-01-30T05:52:08;1.40;99.90
12688;DHT22;6408;59.388;17.798;2024-01-30T05:54:37;1.50;99.90
12688;DHT22;6408;59.388;17.798;2024-01-30T05:57:09;1.40;99.90
12688;DHT22;6408;59.388;17.798;2024-01-30T05:59:35;1.40;99.90
12688;DHT22;6408;59.388;17.798;2024-01-30T06:02:17;1.40;99.90
12688;DHT22;6408;59.388;17.798;2024-01-30T06:05:08;1.30;99.90
12688;DHT22;6408;59.388;17.798;2024-01-30T06:07:37;1.40;99.90
12688;DHT22;6408;59.388;17.798;2024-01-30T06:10:06;1.40;99.90
12688;DHT22;6408;59.388;17.798;2024-01-30T06:12:47;1.40;99.90
12688;DHT22;6408;59.388;17.798;2024-01-30T06:15:27;1.40;99.90
12688;DHT22;6408;59.388;17.798;2024-01-30T06:18:02;1.40;99.90
12688;DHT22;6408;59.388;17.798;2024-01-30T06:20:29;1.40;99.90
12688;DHT22;6408;59.388;17.798;2024-01-30T06:23:00;1.40;99.90
12688;DHT22;6408;59.388;17.798;2024-01-30T06:25:33;1.40;99.90
12688;DHT22;6408;59.388;17.798;2024-01-30T06:28:06;1.50;99.90
12688;DHT22;6408;59.388;17.798;2024-01-30T06:30:33;1.50;99.90
12688;DHT22;6408;59.388;17.798;2024-01-30T06:33:03;1.50;99.90
12688;DHT22;6408;59.388;17.798;2024-01-30T06:35:42;1.50;99.90
12688;DHT22;6408;59.388;17.798;2024-01-30T06:38:11;1.40;99.90
12688;DHT22;6408;59.388;17.798;2024-01-30T06:40:41;1.50;99.90
12688;DHT22;6408;59.388;17.798;2024-01-30T06:43:10;1.50;99.90
12688;DHT22;6408;59.388;17.798;2024-01-30T06:45:41;1.50;99.90
12688;DHT22;6408;59.388;17.798;2024-01-30T06:48:09;1.40;99.90
12688;DHT22;6408;59.388;17.798;2024-01-30T06:50:38;1.40;99.90
12688;DHT22;6408;59.388;17.798;2024-01-30T06:53:05;1.30;99.90
12688;DHT22;6408;59.388;17.798;2024-01-30T06:55:45;1.40;99.90
12688;DHT22;6408;59.388;17.798;2024-01-30T06:58:12;1.40;99.90
12688;DHT22;6408;59.388;17.798;2024-01-30T07:00:40;1.40;99.90
12688;DHT22;6408;59.388;17.798;2024-01-30T07:03:11;1.30;99.90
12688;DHT22;6408;59.388;17.798;2024-01-30T07:05:38;1.40;99.90
12688;DHT22;6408;59.388;17.798;2024-01-30T07:08:06;1.40;99.90
12688;DHT22;6408;59.388;17.798;2024-01-30T07:10:35;1.40;99.90
12688;DHT22;6408;59.388;17.798;2024-01-30T07:13:21;1.40;99.90
12688;DHT22;6408;59.388;17.798;2024-01-30T07:15:54;1.40;99.90
12688;DHT22;6408;59.388;17.798;2024-01-30T07:18:23;1.40;99.90
12688;DHT22;6408;59.388;17.798;2024-01-30T07:20:53;1.40;99.90
12688;DHT22;6408;59.388;17.798;2024-01-30T07:23:20;1.50;99.90
12688;DHT22;6408;59.388;17.798;2024-01-30T07:25:48;1.50;99.90
12688;DHT22;6408;59.388;17.798;2024-01-30T07:28:16;1.50;99.90
12688;DHT22;6408;59.388;17.798;2024-01-30T07:30:46;1.60;99.90
12688;DHT22;6408;59.388;17.798;2024-01-30T07:33:18;1.60;99.90
12688;DHT22;6408;59.388;17.798;2024-01-30T07:35:47;1.60;99.90
12688;DHT22;6408;59.388;17.798;2024-01-30T07:38:14;1.60;99.90
12688;DHT22;6408;59.388;17.798;2024-01-30T07:40:49;1.70;99.90
12688;DHT22;6408;59.388;17.798;2024-01-30T07:43:16;1.70;99.90
12688;DHT22;6408;59.388;17.798;2024-01-30T07:45:44;1.70;99.90
12688;DHT22;6408;59.388;17.798;2024-01-30T07:48:11;1.60;99.90
12688;DHT22;6408;59.388;17.798;2024-01-30T07:50:38;1.60;99.90
12688;DHT22;6408;59.388;17.798;2024-01-30T07:53:09;1.60;99.90
12688;DHT22;6408;59.388;17.798;2024-01-30T07:55:43;1.70;99.90
12688;DHT22;6408;59.388;17.798;2024-01-30T07:58:24;1.70;99.90
12688;DHT22;6408;59.388;17.798;2024-01-30T08:00:55;1.60;99.90
12688;DHT22;6408;59.388;17.798;2024-01-30T08:03:24;1.70;99.90
12688;DHT22;6408;59.388;17.798;2024-01-30T08:05:51;1.70;99.90
12688;DHT22;6408;59.388;17.798;2024-01-30T08:08:20;1.70;99.90
12688;DHT22;6408;59.388;17.798;2024-01-30T08:10:47;1.70;99.90
12688;DHT22;6408;59.388;17.798;2024-01-30T08:13:15;1.80;99.90
12688;DHT22;6408;59.388;17.798;2024-01-30T08:15:42;1.80;99.90
12688;DHT22;6408;59.388;17.798;2024-01-30T08:18:09;1.80;99.90
12688;DHT22;6408;59.388;17.798;2024-01-30T08:20:36;1.80;99.90
12688;DHT22;6408;59.388;17.798;2024-01-30T08:23:03;1.90;99.90
12688;DHT22;6408;59.388;17.798;2024-01-30T08:28:16;2.10;99.90
12688;DHT22;6408;59.388;17.798;2024-01-30T08:30:46;2.10;99.90
12688;DHT22;6408;59.388;17.798;2024-01-30T08:33:13;2.10;99.90
12688;DHT22;6408;59.388;17.798;2024-01-30T08:35:40;2.10;99.90
12688;DHT22;6408;59.388;17.798;2024-01-30T08:38:07;2.10;99.90
12688;DHT22;6408;59.388;17.798;2024-01-30T08:40:36;2.10;99.90
12688;DHT22;6408;59.388;17.798;2024-01-30T08:43:03;2.20;99.90
12688;DHT22;6408;59.388;17.798;2024-01-30T08:45:30;2.20;99.90
12688;DHT22;6408;59.388;17.798;2024-01-30T08:47:57;2.20;99.90
12688;DHT22;6408;59.388;17.798;2024-01-30T08:50:25;2.20;99.90
12688;DHT22;6408;59.388;17.798;2024-01-30T08:52:52;2.20;99.90
12688;DHT22;6408;59.388;17.798;2024-01-30T08:55:20;2.30;99.90
12688;DHT22;6408;59.388;17.798;2024-01-30T08:57:48;2.30;99.90
12688;DHT22;6408;59.388;17.798;2024-01-30T09:00:16;2.30;99.90
12688;DHT22;6408;59.388;17.798;2024-01-30T09:02:43;2.30;99.90
12688;DHT22;6408;59.388;17.798;2024-01-30T09:05:11;2.30;99.90
12688;DHT22;6408;59.388;17.798;2024-01-30T09:07:38;2.30;99.90
12688;DHT22;6408;59.388;17.798;2024-01-30T09:10:07;2.30;99.90
12688;DHT22;6408;59.388;17.798;2024-01-30T09:12:37;2.40;99.90
12688;DHT22;6408;59.388;17.798;2024-01-30T09:15:07;2.40;99.90
12688;DHT22;6408;59.388;17.798;2024-01-30T09:17:35;2.40;99.90
12688;DHT22;6408;59.388;17.798;2024-01-30T09:20:01;2.50;99.90
12688;DHT22;6408;59.388;17.798;2024-01-30T09:22:29;2.50;99.90
12688;DHT22;6408;59.388;17.798;2024-01-30T09:24:57;2.50;99.90
12688;DHT22;6408;59.388;17.798;2024-01-30T09:27:24;2.50;99.90
12688;DHT22;6408;59.388;17.798;2024-01-30T09:29:51;2.60;99.90
12688;DHT22;6408;59.388;17.798;2024-01-30T09:32:19;2.60;99.90
12688;DHT22;6408;59.388;17.798;2024-01-30T09:34:46;2.60;99.90
12688;DHT22;6408;59.388;17.798;2024-01-30T09:37:13;2.70;99.90
12688;DHT22;6408;59.388;17.798;2024-01-30T09:39:43;2.70;99.90
12688;DHT22;6408;59.388;17.798;2024-01-30T09:42:15;2.80;99.90
12688;DHT22;6408;59.388;17.798;2024-01-30T09:44:45;2.80;99.90
12688;DHT22;6408;59.388;17.798;2024-01-30T09:47:15;2.90;99.90
12688;DHT22;6408;59.388;17.798;2024-01-30T09:49:45;2.90;99.90
12688;DHT22;6408;59.388;17.798;2024-01-30T09:52:12;3.00;99.90
12688;DHT22;6408;59.388;17.798;2024-01-30T09:54:40;3.00;99.90
12688;DHT22;6408;59.388;17.798;2024-01-30T09:57:08;3.10;99.90
12688;DHT22;6408;59.388;17.798;2024-01-30T09:59:35;3.10;99.90
12688;DHT22;6408;59.388;17.798;2024-01-30T10:02:02;3.10;99.90
12688;DHT22;6408;59.388;17.798;2024-01-30T10:04:32;3.10;99.90
12688;DHT22;6408;59.388;17.798;2024-01-30T10:07:02;3.10;99.90
12688;DHT22;6408;59.388;17.798;2024-01-30T10:09:32;3.10;99.90
12688;DHT22;6408;59.388;17.798;2024-01-30T10:12:01;3.10;99.90
12688;DHT22;6408;59.388;17.798;2024-01-30T10:14:29;3.10;99.90
12688;DHT22;6408;59.388;17.798;2024-01-30T10:16:57;3.10;99.90
12688;DHT22;6408;59.388;17.798;2024-01-30T10:19:24;3.10;99.90
12688;DHT22;6408;59.388;17.798;2024-01-30T10:21:52;3.10;99.90
12688;DHT22;6408;59.388;17.798;2024-01-30T10:24:25;3.10;99.90
12688;DHT22;6408;59.388;17.798;2024-01-30T10:26:53;3.10;99.90
12688;DHT22;6408;59.388;17.798;2024-01-30T10:29:20;3.10;99.90
12688;DHT22;6408;59.388;17.798;2024-01-30T10:31:57;3.10;99.90
12688;DHT22;6408;59.388;17.798;2024-01-30T10:34:26;3.10;99.90
12688;DHT22;6408;59.388;17.798;2024-01-30T10:37:00;3.10;99.90
12688;DHT22;6408;59.388;17.798;2024-01-30T10:39:36;3.10;99.90
12688;DHT22;6408;59.388;17.798;2024-01-30T10:42:05;3.10;99.90
12688;DHT22;6408;59.388;17.798;2024-01-30T10:44:48;3.10;99.90
12688;DHT22;6408;59.388;17.798;2024-01-30T10:47:26;3.20;99.90
12688;DHT22;6408;59.388;17.798;2024-01-30T10:49:54;3.20;99.90
12688;DHT22;6408;59.388;17.798;2024-01-30T10:52:23;3.20;99.90
12688;DHT22;6408;59.388;17.798;2024-01-30T10:54:55;3.30;99.90
12688;DHT22;6408;59.388;17.798;2024-01-30T10:57:23;3.30;99.90
12688;DHT22;6408;59.388;17.798;2024-01-30T10:59:52;3.30;99.90
12688;DHT22;6408;59.388;17.798;2024-01-30T11:02:27;3.40;99.90
12688;DHT22;6408;59.388;17.798;2024-01-30T11:04:56;3.50;99.90
12688;DHT22;6408;59.388;17.798;2024-01-30T11:07:25;3.50;99.90
12688;DHT22;6408;59.388;17.798;2024-01-30T11:09:59;3.50;99.90
12688;DHT22;6408;59.388;17.798;2024-01-30T11:12:28;3.40;99.90
12688;DHT22;6408;59.388;17.798;2024-01-30T11:15:03;3.50;99.90
12688;DHT22;6408;59.388;17.798;2024-01-30T11:17:41;3.50;99.90
12688;DHT22;6408;59.388;17.798;2024-01-30T11:20:10;3.50;99.90
12688;DHT22;6408;59.388;17.798;2024-01-30T11:22:41;3.50;99.90
12688;DHT22;6408;59.388;17.798;2024-01-30T11:25:13;3.50;99.90
12688;DHT22;6408;59.388;17.798;2024-01-30T11:27:41;3.50;99.90
12688;DHT22;6408;59.388;17.798;2024-01-30T11:30:08;3.60;99.90
12688;DHT22;6408;59.388;17.798;2024-01-30T11:32:36;3.60;99.90
12688;DHT22;6408;59.388;17.798;2024-01-30T11:35:04;3.70;99.90
12688;DHT22;6408;59.388;17.798;2024-01-30T11:37:37;3.70;99.90
12688;DHT22;6408;59.388;17.798;2024-01-30T11:40:06;3.70;99.90
12688;DHT22;6408;59.388;17.798;2024-01-30T11:42:36;3.80;99.90
12688;DHT22;6408;59.388;17.798;2024-01-30T11:45:05;3.80;99.90
12688;DHT22;6408;59.388;17.798;2024-01-30T11:47:35;3.70;99.90
12688;DHT22;6408;59.388;17.798;2024-01-30T11:50:03;3.70;99.90
12688;DHT22;6408;59.388;17.798;2024-01-30T11:52:32;3.70;99.90
12688;DHT22;6408;59.388;17.798;2024-01-30T11:55:00;3.60;99.90
12688;DHT22;6408;59.388;17.798;2024-01-30T11:57:28;3.70;99.90
12688;DHT22;6408;59.388;17.798;2024-01-30T11:59:57;3.60;99.90
12688;DHT22;6408;59.388;17.798;2024-01-30T12:02:24;3.70;99.90
12688;DHT22;6408;59.388;17.798;2024-01-30T12:04:52;3.80;99.90
12688;DHT22;6408;59.388;17.798;2024-01-30T12:07:19;3.80;99.90
12688;DHT22;6408;59.388;17.798;2024-01-30T12:09:52;3.80;99.90
12688;DHT22;6408;59.388;17.798;2024-01-30T12:12:21;3.90;99.90
12688;DHT22;6408;59.388;17.798;2024-01-30T12:14:50;3.80;99.90
12688;DHT22;6408;59.388;17.798;2024-01-30T12:17:27;3.80;99.90
12688;DHT22;6408;59.388;17.798;2024-01-30T12:20:03;3.80;99.90
12688;DHT22;6408;59.388;17.798;2024-01-30T12:22:33;3.80;99.90
12688;DHT22;6408;59.388;17.798;2024-01-30T12:25:00;3.90;99.90
12688;DHT22;6408;59.388;17.798;2024-01-30T12:27:29;3.90;99.90
12688;DHT22;6408;59.388;17.798;2024-01-30T12:29:56;3.90;99.90
12688;DHT22;6408;59.388;17.798;2024-01-30T12:32:25;3.90;99.90
12688;DHT22;6408;59.388;17.798;2024-01-30T12:34:55;4.00;99.90
12688;DHT22;6408;59.388;17.798;2024-01-30T12:37:24;4.00;99.90
12688;DHT22;6408;59.388;17.798;2024-01-30T12:39:52;4.00;99.90
12688;DHT22;6408;59.388;17.798;2024-01-30T12:42:21;4.00;99.90
12688;DHT22;6408;59.388;17.798;2024-01-30T12:44:48;4.00;99.90
12688;DHT22;6408;59.388;17.798;2024-01-30T12:47:16;4.00;99.90
12688;DHT22;6408;59.388;17.798;2024-01-30T12:49:45;3.90;99.90
12688;DHT22;6408;59.388;17.798;2024-01-30T12:52:13;3.90;99.90
12688;DHT22;6408;59.388;17.798;2024-01-30T12:54:41;3.90;99.90
12688;DHT22;6408;59.388;17.798;2024-01-30T12:57:08;3.80;99.90
12688;DHT22;6408;59.388;17.798;2024-01-30T12:59:36;3.80;99.90
12688;DHT22;6408;59.388;17.798;2024-01-30T13:02:03;3.80;99.90
12688;DHT22;6408;59.388;17.798;2024-01-30T13:04:31;3.80;99.90
12688;DHT22;6408;59.388;17.798;2024-01-30T13:06:59;3.80;99.90
12688;DHT22;6408;59.388;17.798;2024-01-30T13:09:29;3.80;99.90
12688;DHT22;6408;59.388;17.798;2024-01-30T13:11:57;3.80;99.90
12688;DHT22;6408;59.388;17.798;2024-01-30T13:14:38;3.70;99.90
12688;DHT22;6408;59.388;17.798;2024-01-30T13:17:08;3.80;99.90
12688;DHT22;6408;59.388;17.798;2024-01-30T13:19:36;3.80;99.90
12688;DHT22;6408;59.388;17.798;2024-01-30T13:22:05;3.70;99.90
12688;DHT22;6408;59.388;17.798;2024-01-30T13:24:34;3.70;99.90
12688;DHT22;6408;59.388;17.798;2024-01-30T13:27:03;3.70;99.90
12688;DHT22;6408;59.388;17.798;2024-01-30T13:29:32;3.70;99.90
12688;DHT22;6408;59.388;17.798;2024-01-30T13:32:06;3.60;99.90
12688;DHT22;6408;59.388;17.798;2024-01-30T13:34:38;3.60;99.90
12688;DHT22;6408;59.388;17.798;2024-01-30T13:37:36;3.60;99.90
12688;DHT22;6408;59.388;17.798;2024-01-30T13:40:10;3.60;99.90
12688;DHT22;6408;59.388;17.798;2024-01-30T13:42:44;3.60;99.90
12688;DHT22;6408;59.388;17.798;2024-01-30T13:45:36;3.60;99.90
12688;DHT22;6408;59.388;17.798;2024-01-30T13:48:26;3.60;99.90
12688;DHT22;6408;59.388;17.798;2024-01-30T13:51:21;3.60;99.90
12688;DHT22;6408;59.388;17.798;2024-01-30T13:53:50;3.70;99.90
12688;DHT22;6408;59.388;17.798;2024-01-30T13:56:20;3.70;99.90
12688;DHT22;6408;59.388;17.798;2024-01-30T13:58:54;3.70;99.90
12688;DHT22;6408;59.388;17.798;2024-01-30T14:01:32;3.70;99.90
12688;DHT22;6408;59.388;17.798;2024-01-30T14:04:02;3.70;99.90
12688;DHT22;6408;59.388;17.798;2024-01-30T14:06:34;3.70;99.90
12688;DHT22;6408;59.388;17.798;2024-01-30T14:09:11;3.70;99.90
12688;DHT22;6408;59.388;17.798;2024-01-30T14:14:35;3.60;99.90
12688;DHT22;6408;59.388;17.798;2024-01-30T14:17:10;3.50;99.90
12688;DHT22;6408;59.388;17.798;2024-01-30T14:19:40;3.50;99.90
12688;DHT22;6408;59.388;17.798;2024-01-30T14:22:07;3.40;99.90
12688;DHT22;6408;59.388;17.798;2024-01-30T14:24:41;3.40;99.90
12688;DHT22;6408;59.388;17.798;2024-01-30T14:27:17;3.40;99.90
12688;DHT22;6408;59.388;17.798;2024-01-30T14:29:55;3.40;99.90
12688;DHT22;6408;59.388;17.798;2024-01-30T14:32:38;3.40;99.90
12688;DHT22;6408;59.388;17.798;2024-01-30T14:35:06;3.40;99.90
12688;DHT22;6408;59.388;17.798;2024-01-30T14:37:40;3.40;99.90
12688;DHT22;6408;59.388;17.798;2024-01-30T14:40:21;3.30;99.90
12688;DHT22;6408;59.388;17.798;2024-01-30T14:42:49;3.30;99.90
12688;DHT22;6408;59.388;17.798;2024-01-30T14:45:17;3.30;99.90
12688;DHT22;6408;59.388;17.798;2024-01-30T14:47:45;3.40;99.90
12688;DHT22;6408;59.388;17.798;2024-01-30T14:50:12;3.30;99.90
12688;DHT22;6408;59.388;17.798;2024-01-30T14:52:41;3.30;99.90
12688;DHT22;6408;59.388;17.798;2024-01-30T14:55:09;3.30;99.90
12688;DHT22;6408;59.388;17.798;2024-01-30T14:57:38;3.30;99.90
12688;DHT22;6408;59.388;17.798;2024-01-30T15:00:08;3.30;99.90
12688;DHT22;6408;59.388;17.798;2024-01-30T15:02:37;3.40;99.90
12688;DHT22;6408;59.388;17.798;2024-01-30T15:05:05;3.40;99.90
12688;DHT22;6408;59.388;17.798;2024-01-30T15:07:32;3.30;99.90
12688;DHT22;6408;59.388;17.798;2024-01-30T15:10:00;3.30;99.90
12688;DHT22;6408;59.388;17.798;2024-01-30T15:12:29;3.30;99.90
12688;DHT22;6408;59.388;17.798;2024-01-30T15:14:58;3.40;99.90
12688;DHT22;6408;59.388;17.798;2024-01-30T15:17:25;3.40;99.90
12688;DHT22;6408;59.388;17.798;2024-01-30T15:19:53;3.30;99.90
12688;DHT22;6408;59.388;17.798;2024-01-30T15:22:20;3.40;99.90
12688;DHT22;6408;59.388;17.798;2024-01-30T15:24:49;3.40;99.90
12688;DHT22;6408;59.388;17.798;2024-01-30T15:27:18;3.40;99.90
12688;DHT22;6408;59.388;17.798;2024-01-30T15:29:47;3.30;99.90
12688;DHT22;6408;59.388;17.798;2024-01-30T15:32:18;3.40;99.90
12688;DHT22;6408;59.388;17.798;2024-01-30T15:34:45;3.40;99.90
12688;DHT22;6408;59.388;17.798;2024-01-30T15:37:14;3.40;99.90
12688;DHT22;6408;59.388;17.798;2024-01-30T15:39:41;3.40;99.90
12688;DHT22;6408;59.388;17.798;2024-01-30T15:42:09;3.40;99.90
12688;DHT22;6408;59.388;17.798;2024-01-30T15:44:36;3.40;99.90
12688;DHT22;6408;59.388;17.798;2024-01-30T15:47:04;3.40;99.90
12688;DHT22;6408;59.388;17.798;2024-01-30T15:49:32;3.50;99.90
12688;DHT22;6408;59.388;17.798;2024-01-30T15:51:59;3.40;99.90
12688;DHT22;6408;59.388;17.798;2024-01-30T15:54:27;3.40;99.90
12688;DHT22;6408;59.388;17.798;2024-01-30T15:56:54;3.40;99.90
12688;DHT22;6408;59.388;17.798;2024-01-30T15:59:21;3.40;99.90
12688;DHT22;6408;59.388;17.798;2024-01-30T16:01:48;3.40;99.90
12688;DHT22;6408;59.388;17.798;2024-01-30T16:04:16;3.40;99.90
12688;DHT22;6408;59.388;17.798;2024-01-30T16:06:45;3.40;99.90
12688;DHT22;6408;59.388;17.798;2024-01-30T16:09:12;3.40;99.90
12688;DHT22;6408;59.388;17.798;2024-01-30T16:11:40;3.40;99.90